Time;durP1;ratioP1;P1;durP2;ratioP2;P2;SDS_P1;SDS_P2;PMS_P1;PMS_P2;Temp;Humidity;BMP_temperature;BMP_pressure;BME280_temperature;BME280_humidity;BME280_pressure;Samples;Min_cycle;Max_cycle;Signal;HPM_P1;HPM_P2
2023/04/02 00:01:00;;;;;;;0.90;0.60;;;6.50;99.90;;;;;;5096518;28;20827;-44
2023/04/02 00:03:44;;;;;;;0.90;0.60;;;6.60;99.90;;;;;;5097074;28;20453;-44
2023/04/02 00:06:29;;;;;;;1.40;0.87;;;6.60;99.90;;;;;;5096413;28;20434;-44
2023/04/02 00:08:57;;;;;;;2.90;0.77;;;6.70;99.90;;;;;;5096150;28;20438;-46
2023/04/02 00:11:34;;;;;;;1.93;0.70;;;6.60;99.90;;;;;;5095944;28;20549;-44
2023/04/02 00:14:01;;;;;;;2.17;0.53;;;6.60;99.90;;;;;;5095068;28;20418;-42
2023/04/02 00:16:27;;;;;;;1.10;0.70;;;6.60;99.90;;;;;;5093968;28;20472;-42
2023/04/02 00:18:55;;;;;;;1.83;0.80;;;6.60;99.90;;;;;;5092775;28;20716;-44
2023/04/02 00:21:26;;;;;;;3.30;0.90;;;6.60;99.90;;;;;;5093460;28;20528;-43
2023/04/02 00:23:54;;;;;;;1.30;0.73;;;6.70;99.90;;;;;;5094772;28;20419;-44
2023/04/02 00:26:31;;;;;;;2.20;0.87;;;6.70;99.90;;;;;;5093728;28;20442;-42
2023/04/02 00:28:59;;;;;;;2.30;0.73;;;6.70;99.90;;;;;;5091286;28;20545;-44
2023/04/02 00:31:24;;;;;;;1.40;0.80;;;6.70;99.90;;;;;;5091352;28;20872;-43
2023/04/02 00:33:51;;;;;;;1.30;0.70;;;6.70;99.90;;;;;;5091845;28;20755;-43
2023/04/02 00:36:21;;;;;;;1.20;0.70;;;6.70;99.90;;;;;;5090535;28;20161;-45
2023/04/02 00:38:47;;;;;;;1.50;0.90;;;6.70;99.90;;;;;;5091938;28;20426;-44
2023/04/02 00:41:21;;;;;;;1.20;0.70;;;6.80;99.90;;;;;;5092607;28;20814;-41
2023/04/02 00:43:49;;;;;;;1.00;0.50;;;6.80;99.90;;;;;;5093207;28;20593;-42
2023/04/02 00:46:20;;;;;;;2.50;0.90;;;6.80;99.90;;;;;;5093841;28;20413;-42
2023/04/02 00:49:06;;;;;;;0.90;0.70;;;6.90;99.90;;;;;;5090476;28;20427;-44
2023/04/02 00:51:43;;;;;;;1.43;0.80;;;6.90;99.90;;;;;;5092386;28;20463;-43
2023/04/02 00:54:14;;;;;;;1.30;0.70;;;6.90;99.90;;;;;;5090177;28;20441;-42
2023/04/02 00:56:43;;;;;;;1.30;0.80;;;6.90;99.90;;;;;;5089600;28;20410;-43
2023/04/02 00:59:26;;;;;;;1.30;0.77;;;6.90;99.90;;;;;;5091467;28;20709;-42
2023/04/02 01:05:13;;;;;;;1.00;0.77;;;6.90;99.90;;;;;;5093630;28;20468;-43
2023/04/02 01:08:03;;;;;;;1.63;0.77;;;6.90;99.90;;;;;;5094881;28;20415;-43
2023/04/02 01:10:50;;;;;;;1.67;0.63;;;7.00;99.20;;;;;;5094007;28;20235;-45
2023/04/02 01:13:26;;;;;;;1.90;0.60;;;6.90;99.90;;;;;;5081817;28;20561;-42
2023/04/02 01:16:03;;;;;;;1.10;0.80;;;6.90;99.90;;;;;;5099494;28;20399;-43
2023/04/02 01:18:34;;;;;;;1.30;0.70;;;7.00;55.20;;;;;;5100297;28;20424;-44
2023/04/02 01:21:20;;;;;;;1.07;0.97;;;6.90;94.50;;;;;;5099202;28;20409;-45
2023/04/02 01:23:53;;;;;;;1.03;0.60;;;7.00;40.90;;;;;;5100165;28;20526;-44
2023/04/02 01:26:52;;;;;;;1.00;0.60;;;6.90;90.80;;;;;;5098822;28;20787;-45
2023/04/02 01:29:23;;;;;;;1.13;0.90;;;6.90;34.90;;;;;;5099965;28;20919;-43
2023/04/02 01:31:50;;;;;;;0.70;0.50;;;7.00;40.60;;;;;;5098499;28;20426;-42
2023/04/02 01:34:21;;;;;;;0.90;0.70;;;7.00;39.40;;;;;;5097784;28;20478;-45
2023/04/02 01:37:01;;;;;;;1.50;0.90;;;7.00;33.50;;;;;;5099283;28;20406;-44
2023/04/02 01:39:54;;;;;;;1.40;0.80;;;7.00;10.40;;;;;;5099876;28;20410;-42
2023/04/02 01:42:44;;;;;;;1.00;0.63;;;7.00;19.80;;;;;;5098397;28;20402;-44
2023/04/02 01:45:13;;;;;;;1.70;0.73;;;7.10;1.00;;;;;;5096204;28;20414;-44
2023/04/02 01:47:39;;;;;;;1.27;0.70;;;7.00;27.80;;;;;;5096190;28;20445;-44
2023/04/02 01:50:16;;;;;;;1.00;0.60;;;7.00;37.40;;;;;;5097852;28;20474;-46
2023/04/02 01:52:45;;;;;;;1.83;0.80;;;7.10;14.10;;;;;;5095792;28;20967;-42
2023/04/02 01:55:13;;;;;;;1.67;0.77;;;7.10;11.50;;;;;;5095334;28;20425;-43
2023/04/02 01:57:43;;;;;;;1.67;0.60;;;7.10;20.00;;;;;;5097302;28;20422;-44
2023/04/02 02:03:31;;;;;;;1.00;0.60;;;7.10;1.00;;;;;;5098093;28;20433;-43
2023/04/02 02:05:57;;;;;;;0.87;0.57;;;7.10;7.30;;;;;;5097477;28;20769;-45
2023/04/02 02:08:33;;;;;;;1.53;0.90;;;7.00;23.10;;;;;;5097435;28;20831;-45
2023/04/02 02:10:59;;;;;;;1.53;1.20;;;7.10;17.10;;;;;;5098487;28;20461;-43
2023/04/02 02:13:25;;;;;;;0.90;0.60;;;7.10;42.40;;;;;;5099181;28;20427;-45
2023/04/02 02:15:50;;;;;;;5.33;0.90;;;7.10;37.30;;;;;;5099125;28;20415;-46
2023/04/02 02:18:22;;;;;;;1.97;1.30;;;7.10;99.90;;;;;;5098903;28;20195;-45
2023/04/02 02:20:49;;;;;;;0.87;0.63;;;7.20;48.70;;;;;;5098276;28;20203;-46
2023/04/02 02:23:14;;;;;;;1.70;0.70;;;7.20;40.80;;;;;;5097899;28;20418;-43
2023/04/02 02:25:40;;;;;;;1.20;0.77;;;7.20;18.70;;;;;;5098696;28;20839;-43
2023/04/02 02:28:23;;;;;;;1.20;0.90;;;7.20;28.00;;;;;;5098189;28;20236;-46
2023/04/02 02:30:52;;;;;;;1.47;1.03;;;7.20;51.40;;;;;;5099454;28;20477;-44
2023/04/02 02:33:23;;;;;;;2.07;0.93;;;7.20;91.10;;;;;;5097710;28;20413;-44
2023/04/02 02:36:12;;;;;;;5.27;1.10;;;7.20;50.10;;;;;;5097954;28;20483;-46
2023/04/02 02:38:43;;;;;;;1.80;1.00;;;7.20;66.30;;;;;;5096856;28;20483;-44
2023/04/02 02:41:14;;;;;;;2.10;0.90;;;7.20;99.90;;;;;;5098899;28;20691;-44
2023/04/02 02:43:56;;;;;;;1.67;1.20;;;7.20;94.10;;;;;;5096388;28;20714;-44
2023/04/02 02:46:23;;;;;;;1.43;1.00;;;7.20;99.90;;;;;;5096998;28;20414;-45
2023/04/02 02:48:51;;;;;;;2.40;1.00;;;7.10;99.90;;;;;;5096465;28;20901;-44
2023/04/02 02:51:22;;;;;;;1.13;0.80;;;7.20;99.90;;;;;;5095575;28;20478;-46
2023/04/02 02:53:51;;;;;;;1.77;1.13;;;7.20;99.90;;;;;;5095738;28;20436;-43
2023/04/02 02:56:18;;;;;;;2.70;1.10;;;7.20;99.90;;;;;;5097675;28;20417;-43
2023/04/02 02:58:43;;;;;;;1.40;1.20;;;7.20;99.90;;;;;;5094650;28;20427;-46
2023/04/02 03:01:09;;;;;;;1.60;0.80;;;7.20;99.90;;;;;;5094380;28;20428;-46
2023/04/02 03:03:35;;;;;;;3.60;1.10;;;7.20;99.90;;;;;;5095550;28;20188;-44
2023/04/02 03:06:06;;;;;;;2.17;1.00;;;7.20;99.90;;;;;;5095788;28;20521;-43
2023/04/02 03:08:44;;;;;;;2.10;0.80;;;7.30;99.90;;;;;;5094903;28;20205;-42
2023/04/02 03:11:15;;;;;;;1.10;0.90;;;7.20;99.90;;;;;;5095658;28;20755;-43
2023/04/02 03:13:45;;;;;;;1.53;0.80;;;7.20;99.90;;;;;;5094619;28;20426;-44
2023/04/02 03:16:32;;;;;;;1.23;0.80;;;7.10;99.90;;;;;;5096114;28;20709;-45
2023/04/02 03:19:25;;;;;;;1.10;0.70;;;7.10;99.90;;;;;;5096982;28;20525;-44
2023/04/02 03:21:52;;;;;;;1.20;1.00;;;7.10;99.90;;;;;;5096747;28;20612;-46
2023/04/02 03:24:42;;;;;;;1.77;0.80;;;7.10;99.90;;;;;;5095456;28;20434;-44
2023/04/02 03:27:07;;;;;;;1.33;0.83;;;7.20;45.10;;;;;;5096602;28;20466;-44
2023/04/02 03:29:36;;;;;;;2.17;1.00;;;7.20;72.40;;;;;;5094926;28;20440;-46
2023/04/02 03:32:15;;;;;;;1.90;0.83;;;7.10;99.90;;;;;;5093002;28;20180;-45
2023/04/02 03:34:51;;;;;;;1.20;0.80;;;7.20;58.80;;;;;;5091849;28;20520;-46
2023/04/02 03:37:20;;;;;;;1.53;0.70;;;7.20;90.50;;;;;;5092973;28;20429;-42
2023/04/02 03:39:46;;;;;;;1.87;0.83;;;7.20;93.70;;;;;;5093515;28;20664;-44
2023/04/02 03:42:19;;;;;;;1.30;1.00;;;7.20;99.90;;;;;;5092472;28;20457;-45
2023/04/02 03:44:57;;;;;;;1.73;0.93;;;7.20;94.10;;;;;;5095551;28;20418;-44
2023/04/02 03:47:33;;;;;;;1.43;0.80;;;7.20;95.80;;;;;;5096707;28;20467;-42
2023/04/02 03:50:06;;;;;;;0.93;0.83;;;7.30;48.30;;;;;;5096366;28;20526;-43
2023/04/02 03:52:35;;;;;;;1.63;0.90;;;7.20;51.70;;;;;;5096270;28;20433;-45
2023/04/02 03:55:01;;;;;;;2.07;0.90;;;7.30;56.80;;;;;;5096589;28;20515;-43
2023/04/02 03:58:04;;;;;;;1.53;0.80;;;7.30;59.80;;;;;;5096526;28;20419;-46
2023/04/02 04:00:40;;;;;;;1.30;0.70;;;7.30;20.20;;;;;;5079292;28;20506;-47
2023/04/02 04:03:12;;;;;;;2.77;1.17;;;7.30;48.00;;;;;;5096091;28;20454;-45
2023/04/02 04:05:50;;;;;;;1.97;0.83;;;7.30;38.50;;;;;;5095792;28;20418;-45
2023/04/02 04:08:27;;;;;;;1.27;1.17;;;7.30;51.50;;;;;;5095891;28;20414;-43
2023/04/02 04:10:56;;;;;;;1.40;0.90;;;7.20;77.70;;;;;;5096917;28;20950;-42
2023/04/02 04:13:49;;;;;;;2.97;0.90;;;7.30;53.00;;;;;;5095030;28;20759;-44
2023/04/02 04:16:25;;;;;;;1.93;0.93;;;7.30;83.60;;;;;;5083915;28;20418;-47
2023/04/02 04:19:02;;;;;;;2.37;1.30;;;7.30;95.90;;;;;;5095224;28;20426;-46
2023/04/02 04:21:29;;;;;;;1.93;1.20;;;7.30;67.10;;;;;;5094631;28;20743;-46
2023/04/02 04:23:56;;;;;;;1.23;1.10;;;7.20;99.90;;;;;;5095664;28;20460;-43
2023/04/02 04:26:34;;;;;;;1.50;1.20;;;7.20;99.90;;;;;;5095371;28;20433;-45
2023/04/02 04:29:39;;;;;;;2.07;1.60;;;7.20;99.90;;;;;;5095273;28;20436;-44
2023/04/02 04:32:26;;;;;;;2.30;1.10;;;7.20;99.90;;;;;;5054341;28;20427;-44
2023/04/02 04:34:56;;;;;;;1.10;0.80;;;7.20;99.90;;;;;;5096023;28;20415;-44
2023/04/02 04:37:33;;;;;;;1.10;0.90;;;7.20;99.90;;;;;;5095154;28;20856;-43
2023/04/02 04:40:04;;;;;;;1.30;1.10;;;7.20;99.90;;;;;;5095315;28;20541;-42
2023/04/02 04:42:33;;;;;;;1.37;1.10;;;7.20;99.90;;;;;;5096502;28;20823;-45
2023/04/02 04:45:19;;;;;;;1.93;1.30;;;7.20;99.90;;;;;;5094513;28;20441;-42
2023/04/02 04:47:50;;;;;;;3.27;1.73;;;7.30;99.90;;;;;;5052761;28;20414;-44
2023/04/02 04:51:00;;;;;;;2.93;1.50;;;7.20;99.90;;;;;;5096089;28;20560;-44
2023/04/02 04:53:28;;;;;;;1.97;1.40;;;7.20;99.90;;;;;;5085383;28;20470;-42
2023/04/02 04:55:56;;;;;;;1.70;1.60;;;7.20;99.90;;;;;;5096349;28;20411;-42
2023/04/02 04:58:50;;;;;;;1.80;1.30;;;7.20;99.90;;;;;;5094590;28;20414;-44
2023/04/02 05:01:22;;;;;;;5.10;1.50;;;7.10;99.90;;;;;;5095152;28;20452;-43
2023/04/02 05:03:54;;;;;;;1.50;1.30;;;7.10;99.90;;;;;;5095460;28;20765;-45
2023/04/02 05:06:39;;;;;;;1.50;1.40;;;7.10;99.90;;;;;;5095045;28;20437;-45
2023/04/02 05:09:17;;;;;;;3.73;1.30;;;7.10;99.90;;;;;;5077420;28;20442;-47
2023/04/02 05:12:09;;;;;;;2.53;1.77;;;7.10;99.90;;;;;;5095539;28;20503;-44
2023/04/02 05:14:52;;;;;;;2.80;1.50;;;7.10;99.90;;;;;;5094152;28;20423;-47
2023/04/02 05:17:32;;;;;;;2.63;1.30;;;7.10;99.90;;;;;;5093870;28;20726;-45
2023/04/02 05:19:59;;;;;;;5.57;1.70;;;7.10;99.90;;;;;;5090769;28;20743;-43
2023/04/02 05:22:45;;;;;;;2.70;1.57;;;7.10;99.90;;;;;;5093860;28;20410;-43
2023/04/02 05:25:22;;;;;;;5.37;1.60;;;7.20;99.90;;;;;;5096620;28;20418;-44
2023/04/02 05:28:06;;;;;;;3.40;1.40;;;7.20;99.90;;;;;;5093373;28;20632;-47
2023/04/02 05:31:00;;;;;;;2.23;1.50;;;7.30;99.90;;;;;;5092960;28;20458;-42
2023/04/02 05:33:28;;;;;;;3.57;1.40;;;7.30;99.90;;;;;;5075881;28;20506;-50
2023/04/02 05:36:00;;;;;;;2.70;1.67;;;7.30;99.90;;;;;;5092912;28;20406;-45
2023/04/02 05:38:28;;;;;;;2.23;1.43;;;7.30;99.90;;;;;;5092868;28;20518;-45
2023/04/02 05:41:00;;;;;;;4.47;1.63;;;7.40;99.90;;;;;;5090607;28;20410;-50
2023/04/02 05:43:27;;;;;;;2.10;1.37;;;7.30;99.90;;;;;;5093128;28;20456;-45
2023/04/02 05:45:55;;;;;;;1.87;1.30;;;7.40;99.90;;;;;;5094131;28;20839;-45
2023/04/02 05:48:42;;;;;;;2.90;1.50;;;7.40;99.90;;;;;;5093951;28;20679;-44
2023/04/02 05:51:15;;;;;;;2.60;1.17;;;7.50;99.90;;;;;;5094128;28;20886;-42
2023/04/02 05:53:47;;;;;;;2.60;1.40;;;7.40;99.90;;;;;;5094881;28;20460;-43
2023/04/02 05:56:30;;;;;;;1.80;1.40;;;7.50;99.90;;;;;;5095664;28;20409;-44
2023/04/02 05:59:16;;;;;;;1.50;1.40;;;7.50;99.90;;;;;;5097273;28;20710;-46
2023/04/02 06:01:48;;;;;;;2.60;1.63;;;7.60;99.90;;;;;;5098738;28;20415;-44
2023/04/02 06:04:30;;;;;;;3.50;1.50;;;7.60;70.90;;;;;;5098330;28;20513;-44
2023/04/02 06:07:05;;;;;;;3.60;1.40;;;7.70;61.60;;;;;;5096886;28;20429;-42
2023/04/02 06:10:13;;;;;;;1.53;1.43;;;7.60;92.10;;;;;;5097890;28;20773;-44
2023/04/02 06:12:51;;;;;;;2.07;1.30;;;7.60;99.90;;;;;;5097753;28;20510;-46
2023/04/02 06:15:20;;;;;;;2.17;1.23;;;7.70;99.90;;;;;;5079503;28;20513;-42
2023/04/02 06:18:17;;;;;;;2.43;1.17;;;7.70;26.20;;;;;;5096105;28;20399;-45
2023/04/02 06:20:43;;;;;;;3.33;1.47;;;7.80;99.90;;;;;;5096115;28;20494;-45
2023/04/02 06:23:35;;;;;;;2.23;1.20;;;7.90;99.90;;;;;;5096910;28;20711;-46
2023/04/02 06:26:25;;;;;;;1.80;1.50;;;7.90;39.10;;;;;;5095642;28;20172;-43
2023/04/02 06:29:05;;;;;;;2.30;1.40;;;8.00;38.30;;;;;;5096146;28;20438;-44
2023/04/02 06:31:50;;;;;;;1.63;1.27;;;8.10;7.60;;;;;;5096228;28;20602;-44
2023/04/02 06:34:18;;;;;;;2.70;1.37;;;8.20;1.00;;;;;;5096154;28;20434;-43
2023/04/02 06:36:44;;;;;;;1.80;1.30;;;8.30;1.00;;;;;;5097175;28;20415;-43
2023/04/02 06:39:16;;;;;;;3.20;1.53;;;8.40;1.00;;;;;;5098614;28;20713;-45
2023/04/02 06:41:42;;;;;;;2.20;1.27;;;8.50;99.90;;;;;;5098532;28;20442;-44
2023/04/02 06:44:20;;;;;;;2.47;1.23;;;8.50;99.90;;;;;;5098354;28;20466;-45
2023/04/02 06:46:53;;;;;;;1.80;1.40;;;8.60;99.90;;;;;;5097928;28;20177;-43
2023/04/02 06:49:24;;;;;;;1.50;1.20;;;8.70;99.90;;;;;;5097851;28;20419;-44
2023/04/02 06:51:53;;;;;;;2.77;1.43;;;8.80;99.90;;;;;;5094249;28;20462;-46
2023/04/02 06:54:19;;;;;;;2.13;1.33;;;9.00;1.00;;;;;;5093413;28;20518;-42
2023/04/02 06:56:50;;;;;;;1.37;1.13;;;9.00;1.00;;;;;;5095539;28;20459;-45
2023/04/02 06:59:16;;;;;;;1.47;1.23;;;9.10;1.00;;;;;;5098623;28;20414;-44
2023/04/02 07:01:53;;;;;;;1.73;1.27;;;9.20;99.90;;;;;;5100961;28;20479;-46
2023/04/02 07:04:20;;;;;;;2.07;1.20;;;9.20;1.00;;;;;;5099617;28;20740;-44
2023/04/02 07:06:46;;;;;;;2.10;1.27;;;9.30;1.00;;;;;;5099910;28;20449;-46
2023/04/02 07:09:12;;;;;;;1.50;1.00;;;9.10;1.00;;;;;;5096991;28;20455;-44
2023/04/02 07:11:38;;;;;;;2.33;1.30;;;9.20;99.90;;;;;;5100134;28;20199;-44
2023/04/02 07:14:04;;;;;;;2.17;1.37;;;9.40;99.90;;;;;;5097049;28;20423;-46
2023/04/02 07:16:32;;;;;;;1.30;1.20;;;9.50;1.00;;;;;;5099329;28;20407;-46
2023/04/02 07:18:58;;;;;;;1.40;1.20;;;9.60;99.90;;;;;;5097320;28;20437;-50
2023/04/02 07:21:25;;;;;;;1.60;1.10;;;9.70;93.30;;;;;;5098110;28;20511;-45
2023/04/02 07:23:51;;;;;;;2.03;1.40;;;9.70;1.00;;;;;;5100137;28;20712;-44
2023/04/02 07:26:21;;;;;;;2.77;1.20;;;9.60;1.00;;;;;;5098614;28;20417;-45
2023/04/02 07:28:46;;;;;;;2.17;1.43;;;9.60;1.00;;;;;;5096785;28;20422;-43
2023/04/02 07:31:17;;;;;;;1.60;1.10;;;9.50;99.90;;;;;;5097352;28;20458;-43
2023/04/02 07:33:43;;;;;;;2.70;1.30;;;9.60;96.90;;;;;;5095189;28;20441;-43
2023/04/02 07:36:16;;;;;;;1.30;1.10;;;9.60;99.90;;;;;;5096538;28;20647;-45
2023/04/02 07:38:42;;;;;;;2.40;1.50;;;9.60;99.90;;;;;;5095161;28;20488;-44
2023/04/02 07:41:09;;;;;;;3.17;1.03;;;9.70;4.10;;;;;;5094121;28;20417;-43
2023/04/02 07:43:34;;;;;;;1.80;1.50;;;9.70;30.20;;;;;;5093139;28;20526;-46
2023/04/02 07:46:00;;;;;;;2.10;1.17;;;9.80;1.00;;;;;;5095353;28;20456;-45
2023/04/02 07:48:26;;;;;;;3.20;1.10;;;9.80;1.00;;;;;;5092957;28;20185;-44
2023/04/02 07:50:52;;;;;;;1.77;1.20;;;9.90;99.90;;;;;;5094811;28;20454;-46
2023/04/02 07:53:28;;;;;;;1.40;1.10;;;10.00;1.00;;;;;;5094104;28;20601;-43
2023/04/02 07:55:55;;;;;;;2.00;1.47;;;10.10;99.90;;;;;;5093531;28;20175;-44
2023/04/02 07:58:21;;;;;;;2.10;1.30;;;10.20;1.00;;;;;;5092827;28;20418;-46
2023/04/02 08:00:46;;;;;;;3.00;1.30;;;10.20;1.00;;;;;;5094552;28;20419;-44
2023/04/02 08:03:12;;;;;;;2.00;1.40;;;10.30;1.00;;;;;;5094489;28;20184;-44
2023/04/02 08:05:38;;;;;;;2.70;2.03;;;10.40;1.00;;;;;;5094742;28;20269;-43
2023/04/02 08:08:04;;;;;;;7.50;6.73;;;10.40;1.00;;;;;;5095296;28;20476;-46
2023/04/02 08:10:29;;;;;;;6.60;5.80;;;10.30;99.90;;;;;;5094766;28;20243;-43
2023/04/02 08:12:55;;;;;;;3.40;3.03;;;10.20;1.00;;;;;;5094070;28;20169;-45
2023/04/02 08:15:21;;;;;;;5.73;3.93;;;10.20;99.90;;;;;;5092483;28;20320;-44
2023/04/02 08:17:46;;;;;;;2.03;1.10;;;10.40;99.90;;;;;;5093163;28;20165;-42
2023/04/02 08:20:21;;;;;;;1.77;1.10;;;10.50;50.10;;;;;;5092882;28;20200;-44
2023/04/02 08:22:47;;;;;;;12.43;8.27;;;10.60;1.00;;;;;;5092318;28;20244;-44
2023/04/02 08:25:15;;;;;;;66.00;37.37;;;10.50;1.00;;;;;;5093484;28;20433;-44
2023/04/02 08:27:40;;;;;;;15.17;9.60;;;10.50;1.00;;;;;;5093552;28;20812;-43
2023/04/02 08:30:08;;;;;;;2.00;1.30;;;10.60;1.00;;;;;;5092177;28;20560;-46
2023/04/02 08:32:34;;;;;;;2.30;1.27;;;10.60;1.00;;;;;;5095350;28;20413;-47
2023/04/02 08:35:00;;;;;;;93.97;56.33;;;10.80;99.90;;;;;;5095280;28;20855;-44
2023/04/02 08:37:26;;;;;;;12.83;8.20;;;10.80;99.90;;;;;;5095473;28;20466;-44
2023/04/02 08:39:52;;;;;;;1.93;1.30;;;10.90;99.90;;;;;;5096401;28;20418;-43
2023/04/02 08:42:44;;;;;;;3.83;1.33;;;10.50;99.90;;;;;;5095602;28;20418;-43
2023/04/02 08:45:33;;;;;;;1.33;1.03;;;10.60;1.00;;;;;;5089438;28;20173;-43
2023/04/02 08:48:00;;;;;;;2.30;1.20;;;10.50;1.00;;;;;;5083424;28;20430;-44
2023/04/02 08:50:38;;;;;;;1.10;0.90;;;10.40;99.90;;;;;;5073196;28;20474;-45
2023/04/02 08:53:08;;;;;;;2.70;2.03;;;10.40;53.90;;;;;;5074211;28;20472;-45
2023/04/02 08:56:40;;;;;;;3.60;1.40;;;10.40;99.90;;;;;;5072939;28;20408;-43
2023/04/02 08:58:53;;;;;;;2.73;1.33;;;10.30;99.90;;;;;;5064963;28;20431;-45
2023/04/02 09:01:33;;;;;;;2.83;1.30;;;10.40;1.00;;;;;;5070834;28;20430;-48
2023/04/02 09:04:00;;;;;;;2.57;1.50;;;10.40;99.90;;;;;;5072026;28;20430;-47
2023/04/02 09:06:28;;;;;;;1.33;1.03;;;10.40;99.90;;;;;;5072032;28;20420;-45
2023/04/02 09:08:54;;;;;;;1.97;1.33;;;10.40;99.90;;;;;;5072724;28;20850;-46
2023/04/02 09:11:22;;;;;;;2.40;1.40;;;10.40;99.90;;;;;;5072281;28;20508;-46
2023/04/02 09:13:57;;;;;;;1.50;0.90;;;10.50;99.90;;;;;;5073597;28;20420;-43
2023/04/02 09:16:37;;;;;;;1.60;1.20;;;10.70;66.60;;;;;;5073140;28;20781;-45
2023/04/02 09:19:22;;;;;;;1.73;1.40;;;10.70;1.00;;;;;;5087325;28;20455;-46
2023/04/02 09:21:55;;;;;;;1.23;0.90;;;10.80;1.00;;;;;;5091580;28;20430;-45
2023/04/02 09:24:21;;;;;;;2.07;0.83;;;11.20;99.90;;;;;;5091018;28;20437;-45
2023/04/02 09:26:46;;;;;;;1.60;1.30;;;11.50;1.00;;;;;;5091519;28;20880;-44
2023/04/02 09:29:12;;;;;;;1.30;1.00;;;11.80;99.90;;;;;;5091553;28;20259;-45
2023/04/02 09:31:54;;;;;;;1.50;1.00;;;12.00;99.90;;;;;;5090856;28;20531;-44
2023/04/02 09:34:31;;;;;;;2.10;1.90;;;12.00;1.00;;;;;;5094646;28;20525;-45
2023/04/02 09:37:07;;;;;;;1.30;1.00;;;12.40;1.00;;;;;;5097636;28;20830;-43
2023/04/02 09:39:34;;;;;;;2.03;1.00;;;12.60;99.90;;;;;;5097453;28;20418;-45
2023/04/02 09:42:05;;;;;;;1.10;0.90;;;12.80;99.90;;;;;;5096479;28;20503;-43
2023/04/02 09:44:31;;;;;;;1.10;0.80;;;12.80;1.00;;;;;;5097716;28;20487;-45
2023/04/02 09:47:02;;;;;;;1.30;0.70;;;12.80;1.00;;;;;;5096609;28;20509;-43
2023/04/02 09:49:35;;;;;;;1.10;0.50;;;12.90;1.00;;;;;;5096340;28;20195;-44
2023/04/02 09:52:13;;;;;;;1.30;0.60;;;12.50;1.00;;;;;;5080980;28;20469;-44
2023/04/02 09:54:41;;;;;;;1.40;0.73;;;12.50;1.00;;;;;;5097425;28;20429;-43
2023/04/02 09:57:25;;;;;;;1.40;1.10;;;12.60;1.00;;;;;;5098471;28;20407;-48
2023/04/02 10:00:25;;;;;;;2.10;0.97;;;12.60;1.00;;;;;;5097402;28;20430;-43
2023/04/02 10:03:17;;;;;;;1.57;1.23;;;12.30;1.00;;;;;;5097325;28;20395;-44
2023/04/02 10:05:43;;;;;;;1.60;1.40;;;12.10;1.00;;;;;;5094849;28;20482;-45
2023/04/02 10:08:17;;;;;;;1.30;1.00;;;12.00;1.00;;;;;;5094613;28;20422;-43
2023/04/02 10:10:46;;;;;;;1.40;1.00;;;12.10;89.10;;;;;;5096827;28;20458;-46
2023/04/02 10:13:27;;;;;;;1.23;0.77;;;12.30;1.00;;;;;;5094700;28;20497;-45
2023/04/02 10:16:21;;;;;;;3.33;0.63;;;12.50;1.00;;;;;;5097353;28;20403;-45
2023/04/02 10:19:06;;;;;;;1.03;0.80;;;12.80;1.00;;;;;;5097544;28;20466;-45
2023/04/02 10:21:34;;;;;;;1.20;0.80;;;12.90;1.00;;;;;;5097571;28;20735;-44
2023/04/02 10:24:01;;;;;;;2.33;0.80;;;12.90;1.00;;;;;;5098547;28;20516;-44
2023/04/02 10:26:58;;;;;;;1.30;0.57;;;13.00;1.00;;;;;;5098650;28;20786;-44
2023/04/02 10:29:29;;;;;;;1.00;0.70;;;13.10;99.90;;;;;;5097091;28;20425;-45
2023/04/02 10:32:13;;;;;;;1.17;0.67;;;13.10;99.90;;;;;;5097408;28;20454;-44
2023/04/02 10:34:54;;;;;;;2.30;0.77;;;13.20;99.90;;;;;;5096363;28;20773;-44
2023/04/02 10:37:44;;;;;;;1.73;0.87;;;13.40;99.90;;;;;;5096146;28;20505;-44
2023/04/02 10:40:16;;;;;;;1.03;0.50;;;13.40;99.90;;;;;;5095342;28;20434;-44
2023/04/02 10:42:54;;;;;;;1.60;0.90;;;13.30;99.90;;;;;;5095175;28;20427;-43
2023/04/02 10:45:42;;;;;;;1.73;0.80;;;13.30;99.90;;;;;;5092217;28;20431;-44
2023/04/02 10:48:41;;;;;;;1.20;0.60;;;13.30;99.90;;;;;;5094612;28;20449;-43
2023/04/02 10:51:22;;;;;;;0.80;0.50;;;13.10;99.90;;;;;;5092341;28;20458;-45
2023/04/02 10:54:23;;;;;;;1.40;0.67;;;13.00;99.90;;;;;;5093450;28;20471;-45
2023/04/02 10:56:51;;;;;;;1.73;0.77;;;12.90;99.90;;;;;;5076838;28;20427;-43
2023/04/02 10:59:25;;;;;;;1.17;0.63;;;12.90;99.90;;;;;;5094395;28;20766;-45
2023/04/02 11:01:52;;;;;;;0.90;0.50;;;12.90;99.90;;;;;;5092782;28;20414;-46
2023/04/02 11:04:22;;;;;;;2.60;1.00;;;12.80;99.90;;;;;;5092706;28;20491;-44
2023/04/02 11:06:52;;;;;;;2.20;0.70;;;12.80;99.90;;;;;;5096572;28;20792;-43
2023/04/02 11:09:22;;;;;;;1.20;0.77;;;12.80;99.90;;;;;;5096339;28;20430;-45
2023/04/02 11:11:51;;;;;;;1.53;0.90;;;12.70;99.90;;;;;;5094168;28;20600;-43
2023/04/02 11:14:26;;;;;;;1.50;1.10;;;12.70;99.90;;;;;;5093698;28;20422;-44
2023/04/02 11:16:53;;;;;;;1.10;0.77;;;12.60;99.90;;;;;;5095475;28;21053;-44
2023/04/02 11:19:30;;;;;;;3.20;2.60;;;12.50;99.90;;;;;;5094124;28;20441;-44
2023/04/02 11:22:17;;;;;;;3.70;3.07;;;12.50;99.90;;;;;;5095713;28;20531;-46
2023/04/02 11:24:50;;;;;;;6.70;5.80;;;12.50;99.90;;;;;;5095793;28;20625;-45
2023/04/02 11:27:34;;;;;;;4.83;4.43;;;12.50;99.90;;;;;;5094925;28;20466;-46
2023/04/02 11:30:15;;;;;;;3.67;3.20;;;12.50;99.90;;;;;;5094415;28;20903;-44
2023/04/02 11:32:42;;;;;;;8.50;6.40;;;12.40;1.00;;;;;;5096086;28;20414;-46
2023/04/02 11:35:35;;;;;;;19.27;13.27;;;12.50;1.00;;;;;;5094978;28;20426;-45
2023/04/02 11:38:03;;;;;;;3.13;2.13;;;12.50;1.00;;;;;;5095866;28;20513;-45
2023/04/02 11:41:01;;;;;;;3.23;2.70;;;12.50;1.00;;;;;;5094670;28;20458;-44
2023/04/02 11:43:32;;;;;;;1.63;1.40;;;12.50;1.00;;;;;;5051046;28;20438;-44
2023/04/02 11:46:22;;;;;;;1.20;1.00;;;12.50;1.00;;;;;;5096006;28;20402;-44
2023/04/02 11:48:47;;;;;;;1.70;1.37;;;12.50;1.00;;;;;;5095287;28;20512;-43
2023/04/02 11:51:19;;;;;;;3.43;3.13;;;12.60;1.00;;;;;;5095947;28;20512;-44
2023/04/02 11:53:46;;;;;;;2.40;2.20;;;12.60;1.00;;;;;;5094833;28;20471;-46
2023/04/02 11:56:28;;;;;;;2.30;1.80;;;12.70;1.00;;;;;;5095207;28;20404;-46
2023/04/02 11:59:19;;;;;;;1.87;1.27;;;12.80;1.00;;;;;;5094964;28;20828;-43
2023/04/02 12:02:22;;;;;;;1.13;0.80;;;12.90;1.00;;;;;;5057891;28;20411;-43
2023/04/02 12:05:35;;;;;;;1.50;1.13;;;13.00;1.00;;;;;;5091794;28;20776;-45
2023/04/02 12:08:12;;;;;;;1.70;1.40;;;13.10;99.90;;;;;;5086449;28;20425;-44
2023/04/02 12:10:56;;;;;;;1.70;1.50;;;13.10;99.90;;;;;;5084828;28;20458;-44
2023/04/02 12:13:40;;;;;;;2.37;2.10;;;13.20;99.90;;;;;;5085833;28;20488;-46
2023/04/02 12:16:10;;;;;;;2.17;1.90;;;13.30;99.90;;;;;;5076483;28;20451;-45
2023/04/02 12:18:42;;;;;;;2.00;1.80;;;13.30;99.90;;;;;;5078801;28;20428;-44
2023/04/02 12:21:15;;;;;;;1.97;1.43;;;13.40;99.90;;;;;;5075022;28;20434;-45
2023/04/02 12:23:44;;;;;;;4.33;3.93;;;13.50;99.90;;;;;;5058059;28;20450;-46
2023/04/02 12:26:29;;;;;;;1.53;1.37;;;13.60;99.90;;;;;;5074969;28;20481;-43
2023/04/02 12:29:12;;;;;;;1.63;1.50;;;13.80;99.90;;;;;;5075048;28;20462;-45
2023/04/02 12:31:43;;;;;;;2.60;1.37;;;13.90;99.90;;;;;;5074968;28;20495;-44
2023/04/02 12:34:14;;;;;;;1.80;1.60;;;14.20;99.90;;;;;;5074484;28;20439;-43
2023/04/02 12:36:51;;;;;;;1.43;1.00;;;14.30;77.20;;;;;;5074558;28;20416;-42
2023/04/02 12:39:17;;;;;;;3.23;1.30;;;14.40;38.90;;;;;;5074514;28;20426;-43
2023/04/02 12:41:42;;;;;;;1.80;0.70;;;14.60;99.90;;;;;;5074404;28;20503;-41
2023/04/02 12:44:16;;;;;;;1.60;1.07;;;14.70;99.90;;;;;;5073647;28;20224;-48
2023/04/02 12:46:43;;;;;;;1.63;0.93;;;14.90;99.90;;;;;;5073390;28;20177;-42
2023/04/02 12:49:22;;;;;;;1.10;0.70;;;15.20;99.90;;;;;;5075053;28;20487;-44
2023/04/02 12:51:50;;;;;;;1.07;0.60;;;15.50;52.50;;;;;;5071519;28;20462;-43
2023/04/02 12:54:18;;;;;;;1.10;0.60;;;15.50;1.00;;;;;;5072137;28;20443;-41
2023/04/02 12:56:44;;;;;;;1.00;0.60;;;15.60;1.00;;;;;;5073072;28;20795;-46
2023/04/02 12:59:29;;;;;;;0.93;0.60;;;15.70;1.00;;;;;;5071559;28;20474;-46
2023/04/02 13:01:57;;;;;;;0.83;0.40;;;15.90;1.00;;;;;;5072777;28;20535;-43
2023/04/02 13:04:23;;;;;;;0.90;0.43;;;16.20;1.00;;;;;;5071451;28;20447;-44
2023/04/02 13:06:51;;;;;;;0.80;0.43;;;16.40;1.00;;;;;;5071605;28;20416;-42
2023/04/02 13:09:41;;;;;;;1.30;0.60;;;16.70;1.00;;;;;;5071755;28;20471;-48
2023/04/02 13:12:25;;;;;;;0.90;0.60;;;17.10;1.00;;;;;;5071666;28;20485;-45
2023/04/02 13:14:56;;;;;;;1.00;0.60;;;17.40;1.00;;;;;;5071226;28;20438;-47
2023/04/02 13:17:41;;;;;;;1.10;0.60;;;17.40;1.00;;;;;;5072110;28;20411;-43
2023/04/02 13:20:41;;;;;;;1.80;1.07;;;17.60;1.00;;;;;;5074207;28;20435;-44
2023/04/02 13:23:26;;;;;;;5.00;4.47;;;17.60;1.00;;;;;;5074407;28;20403;-49
2023/04/02 13:25:52;;;;;;;1.90;1.73;;;17.50;1.00;;;;;;5074408;28;20441;-46
2023/04/02 13:28:18;;;;;;;1.80;1.10;;;17.10;1.00;;;;;;5055199;28;20570;-44
2023/04/02 13:30:45;;;;;;;1.30;0.70;;;16.80;1.00;;;;;;5073164;28;20880;-43
2023/04/02 13:33:11;;;;;;;0.97;0.63;;;16.50;1.00;;;;;;5073690;28;20426;-46
2023/04/02 13:35:37;;;;;;;1.70;0.90;;;16.00;1.00;;;;;;5075287;28;20430;-45
2023/04/02 13:38:04;;;;;;;2.50;1.50;;;15.60;1.00;;;;;;5092104;28;20453;-44
2023/04/02 13:40:30;;;;;;;4.87;3.20;;;15.30;1.00;;;;;;5092127;28;20188;-46